Airfield :







YOU CAN JOIN US ON...

 
LOGIN :

Register | Disclaimer

   EN    FR    IT 

 









Legend :    VFR   Marginal VFR   IFR   Intensive IFR   Very Intensive IFR
Visi :
Ceiling :
>= 8 km
>= 3000ft
5 to 8 km
1000 to 3000 ft
1500m to 5 km
500 to 1000 ft
800 to 1500m
200 to 500 ft
< 800m
< 200 ft
Symbols :   Thunderstorms  Fog  Heavy snow  Heavy precipitations  Wind > 20 kt







- Airport Elevation : 1442 ft
- IATA code : ZUM


CZUM - Churchill Falls

CURRENT METAR :
  • 201500Z AUTO 24003KT 210V290 9SM CLR M19/M22 A2999 RMK SLP208

EXPIRED METARs :
  • 201400Z AUTO VRB02KT 9SM CLR M21/M24 A2999 RMK SLP207
  • 201300Z AUTO 31003KT 220V350 9SM CLR M24/M26 A2998 RMK SLP207

TAF TAF CZUM
Valid from the 20 at 14:00 until the 21 at 02:00 UTC


201338Z 2014/2102 VRB03KT P6SM SKC RMK FCST BASED ON AUTO OBS. NXT FCST BY 202000Z
CZQX FIR / North America



MET'MAP, your aeronautical weather chart ! - Copyright ORBIFLY December 2007 - Disclaimer

ORBIFLY MET'MAP TEAM :

Programming & Development : Alexandra Zaïnal
Concept & Development : Baudouin d'Aumeries
Co-Development & Prog : Marc-Olivier Méhu
Technical & hardware support : Manuel Goepfert

Contact : metmap@orbifly.com




SOURCES & CREDITS :

   NOAA